createdAt,value
2019-02-20T00:02:12.951Z,21.40
2019-02-20T00:04:41.599Z,20.53
2019-02-20T00:07:10.333Z,19.57
2019-02-20T00:09:39.098Z,24.13
2019-02-20T00:12:07.762Z,23.30
2019-02-20T00:14:36.537Z,23.37
2019-02-20T00:17:05.279Z,25.03
2019-02-20T00:19:34.044Z,24.47
2019-02-20T00:22:02.719Z,22.20
2019-02-20T00:24:31.403Z,24.83
2019-02-20T00:27:00.117Z,25.77
2019-02-20T00:29:28.800Z,24.17
2019-02-20T00:31:57.511Z,25.70
2019-02-20T00:34:26.274Z,26.93
2019-02-20T00:36:54.932Z,26.87
2019-02-20T00:39:23.627Z,28.23
2019-02-20T00:41:52.350Z,27.17
2019-02-20T00:44:32.659Z,30.80
2019-02-20T00:47:19.421Z,30.00
2019-02-20T00:49:50.117Z,28.53
2019-02-20T00:52:53.366Z,26.57
2019-02-20T00:55:22.073Z,29.60
2019-02-20T00:57:50.758Z,34.47
2019-02-20T01:00:19.427Z,29.17
2019-02-20T01:02:48.131Z,26.68
2019-02-20T01:05:16.791Z,25.67
2019-02-20T01:07:45.521Z,25.82
2019-02-20T01:10:14.229Z,27.50
2019-02-20T01:12:42.986Z,30.23
2019-02-20T01:15:11.686Z,31.20
2019-02-20T01:17:40.394Z,30.70
2019-02-20T01:20:09.198Z,26.87
2019-02-20T01:22:37.909Z,27.67
2019-02-20T01:25:06.719Z,30.30
2019-02-20T01:27:35.419Z,34.15
2019-02-20T01:30:04.786Z,26.45
2019-02-20T01:32:33.503Z,27.43
2019-02-20T01:35:02.112Z,27.25
2019-02-20T01:37:30.744Z,30.65
2019-02-20T01:39:59.504Z,31.00
2019-02-20T01:42:28.200Z,30.60
2019-02-20T01:44:56.941Z,26.23
2019-02-20T01:47:25.615Z,27.13
2019-02-20T01:49:54.309Z,30.70
2019-02-20T01:52:22.930Z,24.02
2019-02-20T01:54:51.618Z,23.70
2019-02-20T01:57:20.373Z,25.40
2019-02-20T01:59:49.059Z,25.10
2019-02-20T02:02:17.679Z,28.32
2019-02-20T02:04:46.376Z,26.75
2019-02-20T02:07:15.067Z,28.47
2019-02-20T02:09:44.255Z,27.93
2019-02-20T02:12:12.927Z,28.92
2019-02-20T02:14:41.631Z,28.40
2019-02-20T02:17:10.271Z,32.63
2019-02-20T02:19:39.018Z,28.65
2019-02-20T02:22:07.758Z,31.63
2019-02-20T02:24:36.447Z,31.40
2019-02-20T02:27:05.109Z,32.20
2019-02-20T02:29:33.797Z,28.47
2019-02-20T02:32:02.355Z,36.05
2019-02-20T02:34:31.044Z,30.05
2019-02-20T02:36:59.759Z,28.02
2019-02-20T02:39:28.402Z,29.20
2019-02-20T02:41:57.124Z,29.87
2019-02-20T02:44:25.906Z,30.27
2019-02-20T02:46:54.677Z,30.05
2019-02-20T02:49:23.365Z,30.02
2019-02-20T02:51:52.090Z,30.45
2019-02-20T02:54:20.759Z,34.18
2019-02-20T02:56:49.444Z,32.55
2019-02-20T02:59:18.116Z,31.80
2019-02-20T03:01:46.898Z,34.33
2019-02-20T03:04:15.549Z,34.90
2019-02-20T03:06:44.258Z,31.45
2019-02-20T03:09:13.141Z,31.00
2019-02-20T03:11:41.851Z,29.55
2019-02-20T03:14:10.523Z,31.25
2019-02-20T03:16:39.156Z,34.38
2019-02-20T03:19:07.941Z,30.52
2019-02-20T03:21:36.607Z,30.70
2019-02-20T03:24:05.244Z,34.58
2019-02-20T03:26:33.937Z,33.50
2019-02-20T03:29:02.691Z,29.77
2019-02-20T03:31:31.480Z,32.50
2019-02-20T03:34:00.247Z,34.58
2019-02-20T03:36:28.928Z,33.60
2019-02-20T03:38:57.643Z,34.30
2019-02-20T03:41:26.345Z,30.08
2019-02-20T03:43:55.049Z,32.88
2019-02-20T03:46:23.789Z,32.45
2019-02-20T03:48:52.508Z,33.05
2019-02-20T03:51:21.235Z,32.53
2019-02-20T03:53:51.915Z,32.10
2019-02-20T03:56:20.441Z,32.83
2019-02-20T03:58:49.117Z,34.20
2019-02-20T04:01:17.833Z,35.73
2019-02-20T04:03:46.624Z,35.63
2019-02-20T04:06:15.357Z,35.23
2019-02-20T04:08:44.001Z,36.17
2019-02-20T04:11:12.776Z,33.80
2019-02-20T04:13:41.574Z,34.48
2019-02-20T04:16:10.309Z,35.17
2019-02-20T04:18:38.998Z,35.48
2019-02-20T04:21:07.706Z,37.48
2019-02-20T04:23:36.359Z,35.30
2019-02-20T04:26:05.087Z,36.98
2019-02-20T04:28:33.743Z,29.10
2019-02-20T04:31:02.427Z,40.48
2019-02-20T04:33:31.116Z,37.08
2019-02-20T04:35:59.828Z,34.60
2019-02-20T04:38:28.615Z,34.90
2019-02-20T04:40:57.334Z,39.88
2019-02-20T04:43:26.060Z,37.88
2019-02-20T04:45:54.719Z,37.65
2019-02-20T04:48:23.371Z,35.25
2019-02-20T04:50:52.088Z,37.58
2019-02-20T04:53:20.824Z,39.60
2019-02-20T04:55:49.499Z,35.15
2019-02-20T04:58:21.530Z,38.02
2019-02-20T05:00:50.233Z,33.20
2019-02-20T05:03:18.907Z,37.65
2019-02-20T05:05:47.596Z,38.83
2019-02-20T05:08:16.244Z,37.67
2019-02-20T05:10:44.949Z,36.65
2019-02-20T05:13:13.655Z,33.67
2019-02-20T05:15:42.345Z,32.65
2019-02-20T05:18:11.049Z,35.10
2019-02-20T05:20:39.705Z,34.67
2019-02-20T05:23:08.414Z,35.43
2019-02-20T05:25:37.043Z,34.67
2019-02-20T05:28:05.717Z,37.30
2019-02-20T05:30:34.433Z,32.93
2019-02-20T05:33:03.153Z,38.83
2019-02-20T05:35:31.827Z,34.78
2019-02-20T05:38:00.503Z,38.17
2019-02-20T05:40:29.183Z,33.35
2019-02-20T05:42:57.836Z,34.45
2019-02-20T05:45:26.413Z,34.90
2019-02-20T05:47:55.102Z,38.10
2019-02-20T05:50:23.718Z,37.78
2019-02-20T05:52:52.416Z,39.63
2019-02-20T05:55:21.070Z,38.00
2019-02-20T05:57:49.757Z,41.70
2019-02-20T06:00:18.446Z,36.45
2019-02-20T06:02:47.140Z,32.58
2019-02-20T06:05:15.919Z,38.90
2019-02-20T06:07:44.639Z,35.50
2019-02-20T06:10:15.531Z,34.98
2019-02-20T06:12:44.262Z,32.95
2019-02-20T06:15:12.982Z,36.45
2019-02-20T06:17:41.796Z,34.85
2019-02-20T06:20:11.328Z,33.13
2019-02-20T06:22:40.555Z,32.80
2019-02-20T06:25:09.266Z,36.33
2019-02-20T06:27:38.060Z,34.90
2019-02-20T06:30:07.054Z,37.90
2019-02-20T06:32:35.840Z,34.40
2019-02-20T06:35:05.196Z,33.35
2019-02-20T06:37:33.980Z,34.60
2019-02-20T06:40:02.662Z,35.05
2019-02-20T06:42:31.363Z,35.68
2019-02-20T06:45:00.021Z,36.73
2019-02-20T06:47:28.713Z,39.38
2019-02-20T06:49:57.368Z,35.03
2019-02-20T06:52:26.099Z,32.80
2019-02-20T06:54:54.905Z,35.38
2019-02-20T06:57:23.668Z,34.43
2019-02-20T06:59:52.445Z,30.70
2019-02-20T07:02:21.295Z,37.47
2019-02-20T07:05:08.106Z,31.80
2019-02-20T07:07:55.866Z,33.63
2019-02-20T07:10:46.697Z,33.00
2019-02-20T07:13:21.996Z,37.57
2019-02-20T07:15:59.056Z,33.97
2019-02-20T07:18:45.375Z,29.93
2019-02-20T07:21:39.440Z,31.80
2019-02-20T07:24:30.287Z,33.28
2019-02-20T07:27:16.691Z,34.57
2019-02-20T07:29:47.344Z,32.20
2019-02-20T07:32:16.724Z,32.27
2019-02-20T07:34:45.480Z,35.43
2019-02-20T07:37:14.180Z,33.33
2019-02-20T07:39:42.919Z,29.47
2019-02-20T07:42:12.148Z,31.13
2019-02-20T07:44:40.874Z,31.27
2019-02-20T07:47:09.512Z,28.17
2019-02-20T07:49:38.234Z,29.00
2019-02-20T07:52:06.946Z,29.57
2019-02-20T07:54:36.009Z,28.83
2019-02-20T07:57:04.693Z,31.87
2019-02-20T07:59:33.453Z,29.77
2019-02-20T08:02:02.315Z,27.03
2019-02-20T08:04:30.966Z,27.17
2019-02-20T08:06:59.662Z,30.13
2019-02-20T08:09:28.445Z,28.43
2019-02-20T08:11:57.239Z,31.27
2019-02-20T08:14:25.923Z,30.83
2019-02-20T08:16:54.707Z,27.83
2019-02-20T08:19:23.414Z,27.87
2019-02-20T08:21:52.101Z,28.83
2019-02-20T08:24:20.785Z,30.97
2019-02-20T08:26:49.529Z,24.57
2019-02-20T08:29:18.326Z,25.57
2019-02-20T08:31:47.380Z,25.90
2019-02-20T08:34:16.064Z,28.40
2019-02-20T08:36:44.679Z,26.60
2019-02-20T08:39:13.398Z,26.57
2019-02-20T08:41:43.195Z,25.17
2019-02-20T08:44:11.872Z,28.97
2019-02-20T08:46:40.633Z,27.43
2019-02-20T08:49:09.420Z,27.60
2019-02-20T08:51:38.197Z,25.63
2019-02-20T08:54:06.897Z,26.80
2019-02-20T08:56:35.626Z,25.77
2019-02-20T08:59:04.341Z,26.57
2019-02-20T09:01:33.139Z,26.17
2019-02-20T09:04:01.821Z,28.40
2019-02-20T09:06:30.498Z,27.47
2019-02-20T09:08:59.250Z,29.13
2019-02-20T09:11:27.964Z,26.50
2019-02-20T09:13:56.757Z,25.93
2019-02-20T09:16:25.506Z,24.40
2019-02-20T09:18:54.277Z,26.60
2019-02-20T09:21:23.036Z,24.87
2019-02-20T09:23:51.731Z,25.00
2019-02-20T09:26:20.500Z,24.87
2019-02-20T09:28:56.746Z,24.67
2019-02-20T09:31:25.870Z,22.27
2019-02-20T09:33:54.513Z,22.37
2019-02-20T09:36:23.243Z,25.10
2019-02-20T09:38:51.977Z,21.37
2019-02-20T09:41:20.653Z,24.13
2019-02-20T09:43:49.383Z,25.27
2019-02-20T09:46:18.075Z,22.17
2019-02-20T09:48:46.802Z,23.83
2019-02-20T09:51:15.489Z,21.30
2019-02-20T09:53:44.227Z,19.67
2019-02-20T09:56:13.186Z,20.83
2019-02-20T09:58:41.882Z,18.30
2019-02-20T10:01:10.612Z,19.57
2019-02-20T10:03:39.395Z,16.97
2019-02-20T10:06:08.056Z,22.07
2019-02-20T10:08:36.739Z,20.03
2019-02-20T10:11:05.447Z,20.67
2019-02-20T10:13:34.181Z,21.00
2019-02-20T10:16:02.895Z,20.90
2019-02-20T10:18:31.588Z,20.50
2019-02-20T10:21:00.196Z,19.00
2019-02-20T10:23:28.919Z,20.00
2019-02-20T10:26:00.774Z,19.47
2019-02-20T10:28:28.233Z,19.57
2019-02-20T10:30:56.889Z,17.97
2019-02-20T10:33:25.561Z,17.07
2019-02-20T10:35:54.231Z,17.77
2019-02-20T10:38:22.927Z,17.93
2019-02-20T10:40:51.684Z,19.00
2019-02-20T10:43:20.499Z,17.27
2019-02-20T10:45:49.120Z,18.00
2019-02-20T10:48:17.813Z,14.40
2019-02-20T10:50:46.610Z,12.63
2019-02-20T10:53:15.456Z,15.13
2019-02-20T10:55:44.158Z,15.47
2019-02-20T10:58:12.839Z,12.93
2019-02-20T11:00:41.525Z,14.17
2019-02-20T11:03:10.175Z,14.70
2019-02-20T11:05:38.860Z,12.97
2019-02-20T11:08:07.636Z,15.53
2019-02-20T11:10:36.402Z,14.83
2019-02-20T11:13:05.068Z,16.50
2019-02-20T11:15:33.852Z,14.90
2019-02-20T11:18:02.568Z,14.10
2019-02-20T11:20:31.235Z,13.57
2019-02-20T11:22:59.949Z,13.17
2019-02-20T11:25:28.604Z,14.17
2019-02-20T11:27:57.323Z,13.03
2019-02-20T11:30:26.021Z,12.77
2019-02-20T11:32:54.951Z,13.43
2019-02-20T11:35:23.634Z,13.27
2019-02-20T11:37:52.790Z,11.50
2019-02-20T11:40:21.497Z,14.57
2019-02-20T11:42:50.246Z,14.47
2019-02-20T11:45:18.946Z,10.60
2019-02-20T11:47:47.637Z,11.77
2019-02-20T11:50:16.410Z,13.97
2019-02-20T11:52:45.157Z,11.90
2019-02-20T11:55:14.047Z,12.00
2019-02-20T11:57:42.688Z,12.13
2019-02-20T12:00:11.741Z,12.17
2019-02-20T12:02:42.192Z,11.43
2019-02-20T12:05:11.251Z,11.33
2019-02-20T12:07:40.279Z,10.80
2019-02-20T12:10:09.341Z,12.73
2019-02-20T12:12:38.064Z,11.60
2019-02-20T12:15:06.946Z,13.83
2019-02-20T12:17:35.776Z,12.60
2019-02-20T12:20:04.719Z,12.23
2019-02-20T12:22:33.549Z,12.33
2019-02-20T12:25:02.457Z,12.57
2019-02-20T12:27:31.105Z,10.13
2019-02-20T12:29:59.935Z,11.57
2019-02-20T12:32:28.684Z,10.47
2019-02-20T12:34:57.369Z,11.60
2019-02-20T12:37:26.018Z,10.63
2019-02-20T12:39:54.619Z,12.07
2019-02-20T12:42:23.279Z,12.00
2019-02-20T12:44:51.989Z,12.50
2019-02-20T12:47:20.701Z,10.13
2019-02-20T12:49:49.370Z,11.67
2019-02-20T12:52:18.077Z,13.30
2019-02-20T12:54:46.821Z,9.20
2019-02-20T12:57:15.479Z,11.77
2019-02-20T12:59:44.215Z,13.30
2019-02-20T13:02:12.913Z,10.50
2019-02-20T13:04:41.787Z,10.47
2019-02-20T13:07:10.517Z,12.07
2019-02-20T13:09:39.243Z,10.47
2019-02-20T13:12:07.858Z,12.87
2019-02-20T13:14:36.541Z,9.80
2019-02-20T13:17:05.265Z,10.13
2019-02-20T13:19:34.037Z,9.40
2019-02-20T13:22:02.757Z,11.33
2019-02-20T13:24:31.449Z,11.20
2019-02-20T13:27:07.387Z,9.43
2019-02-20T13:29:30.640Z,10.33
2019-02-20T13:32:05.507Z,9.37
2019-02-20T13:34:34.186Z,9.73
2019-02-20T13:37:03.145Z,12.00
2019-02-20T13:39:31.842Z,11.47
2019-02-20T13:42:00.635Z,10.67
2019-02-20T13:44:29.364Z,8.87
2019-02-20T13:46:58.395Z,7.83
2019-02-20T13:49:27.193Z,7.57
2019-02-20T13:51:56.009Z,10.70
2019-02-20T13:54:24.776Z,8.43
2019-02-20T13:57:01.454Z,7.33
2019-02-20T13:59:23.992Z,7.93
2019-02-20T14:01:53.073Z,7.70
2019-02-20T14:04:21.879Z,8.17
2019-02-20T14:06:50.654Z,7.00
2019-02-20T14:09:19.410Z,9.37
2019-02-20T14:11:48.178Z,6.17
2019-02-20T14:14:16.967Z,9.60
2019-02-20T14:16:45.642Z,5.50
2019-02-20T14:19:14.714Z,3.80
2019-02-20T14:21:43.463Z,4.33
2019-02-20T14:24:12.188Z,4.73
2019-02-20T14:26:40.901Z,5.33
2019-02-20T14:29:09.649Z,5.53
2019-02-20T14:31:38.396Z,4.63
2019-02-20T14:34:07.041Z,7.23
2019-02-20T14:36:35.758Z,6.43
2019-02-20T14:39:05.625Z,4.37
2019-02-20T14:41:34.331Z,5.03
2019-02-20T14:44:03.320Z,5.60
2019-02-20T14:46:32.025Z,5.17
2019-02-20T14:49:00.872Z,7.73
2019-02-20T14:51:29.996Z,8.57
2019-02-20T14:53:58.732Z,7.23
2019-02-20T14:56:27.484Z,6.67
2019-02-20T14:58:56.265Z,6.03
2019-02-20T15:01:25.046Z,6.13
2019-02-20T15:03:53.762Z,6.17
2019-02-20T15:06:22.487Z,7.00
2019-02-20T15:08:51.225Z,6.57
2019-02-20T15:11:19.954Z,8.07
2019-02-20T15:13:48.787Z,8.40
2019-02-20T15:16:17.586Z,9.23
2019-02-20T15:18:46.348Z,7.33
2019-02-20T15:21:15.142Z,7.60
2019-02-20T15:23:44.286Z,12.60
2019-02-20T15:26:13.057Z,6.90
2019-02-20T15:28:41.787Z,12.50
2019-02-20T15:31:10.565Z,7.47
2019-02-20T15:33:40.154Z,8.13
2019-02-20T15:36:08.837Z,8.10
2019-02-20T15:38:37.493Z,8.43
2019-02-20T15:41:06.191Z,8.70
2019-02-20T15:43:34.933Z,6.77
2019-02-20T15:46:03.589Z,7.30
2019-02-20T15:48:32.410Z,10.77
2019-02-20T15:51:01.171Z,7.33
2019-02-20T15:53:29.991Z,6.83
2019-02-20T15:55:58.995Z,7.37
2019-02-20T15:58:27.773Z,7.40
2019-02-20T16:00:56.584Z,8.00
2019-02-20T16:03:25.445Z,6.77
2019-02-20T16:05:54.180Z,8.13
2019-02-20T16:08:22.986Z,8.97
2019-02-20T16:10:51.781Z,8.93
2019-02-20T16:13:20.793Z,8.03
2019-02-20T16:15:49.718Z,7.27
2019-02-20T16:18:19.948Z,6.37
2019-02-20T16:20:48.785Z,5.03
2019-02-20T16:23:17.566Z,7.07
2019-02-20T16:25:46.356Z,9.13
2019-02-20T16:28:15.802Z,6.93
2019-02-20T16:30:44.691Z,7.50
2019-02-20T16:33:13.353Z,6.47
2019-02-20T16:35:42.049Z,7.50
2019-02-20T16:38:10.811Z,7.63
2019-02-20T16:40:39.589Z,9.53
2019-02-20T16:43:08.328Z,6.43
2019-02-20T16:45:41.482Z,7.43
2019-02-20T16:48:07.753Z,10.80
2019-02-20T16:50:36.424Z,7.47
2019-02-20T16:53:05.189Z,8.80
2019-02-20T16:55:33.867Z,7.30
2019-02-20T16:58:04.030Z,9.03
2019-02-20T17:00:33.186Z,7.30
2019-02-20T17:03:01.852Z,10.10
2019-02-20T17:05:30.590Z,5.60
2019-02-20T17:07:59.179Z,9.03
2019-02-20T17:10:28.015Z,5.33
2019-02-20T17:12:58.235Z,7.00
2019-02-20T17:15:27.040Z,6.20
2019-02-20T17:17:55.826Z,8.50
2019-02-20T17:20:24.412Z,7.33
2019-02-20T17:22:53.080Z,8.70
2019-02-20T17:25:22.137Z,7.13
2019-02-20T17:27:50.974Z,7.23
2019-02-20T17:30:19.711Z,6.70
2019-02-20T17:32:49.759Z,6.47
2019-02-20T17:35:18.549Z,9.47
2019-02-20T17:37:47.301Z,6.30
2019-02-20T17:40:16.079Z,7.67
2019-02-20T17:42:44.780Z,6.80
2019-02-20T17:45:13.609Z,6.77
2019-02-20T17:47:42.515Z,8.90
2019-02-20T17:50:12.241Z,9.80
2019-02-20T17:52:41.059Z,10.43
2019-02-20T17:55:09.909Z,13.87
2019-02-20T17:57:38.582Z,21.47
2019-02-20T18:00:08.725Z,20.53
2019-02-20T18:02:37.537Z,14.27
2019-02-20T18:05:06.322Z,10.70
2019-02-20T18:07:34.999Z,10.43
2019-02-20T18:10:03.991Z,9.90
2019-02-20T18:12:32.643Z,14.13
2019-02-20T18:15:01.274Z,12.67
2019-02-20T18:17:29.983Z,10.20
2019-02-20T18:19:58.721Z,9.77
2019-02-20T18:22:27.543Z,15.77
2019-02-20T18:24:56.225Z,10.37
2019-02-20T18:27:25.028Z,11.00
2019-02-20T18:29:53.804Z,9.97
2019-02-20T18:32:22.556Z,9.83
2019-02-20T18:34:51.265Z,11.10
2019-02-20T18:37:20.018Z,11.53
2019-02-20T18:39:48.744Z,10.30
2019-02-20T18:42:17.446Z,8.00
2019-02-20T18:44:46.214Z,12.33
2019-02-20T18:47:14.940Z,12.83
2019-02-20T18:49:43.697Z,13.27
2019-02-20T18:52:12.475Z,12.43
2019-02-20T18:54:41.184Z,17.10
2019-02-20T18:57:09.887Z,16.40
2019-02-20T18:59:38.660Z,12.83
2019-02-20T19:02:07.308Z,12.27
2019-02-20T19:04:36.004Z,12.90
2019-02-20T19:07:11.727Z,19.70
2019-02-20T19:09:41.187Z,13.30
2019-02-20T19:12:47.694Z,15.10
2019-02-20T19:15:24.888Z,15.83
2019-02-20T19:18:12.757Z,13.23
2019-02-20T19:20:56.101Z,15.33
2019-02-20T19:23:42.665Z,13.27
2019-02-20T19:26:26.105Z,16.97
2019-02-20T19:29:13.939Z,16.70
2019-02-20T19:32:14.062Z,19.30
2019-02-20T19:35:01.964Z,17.13
2019-02-20T19:37:38.108Z,20.83
2019-02-20T19:40:20.948Z,22.50
2019-02-20T19:43:11.714Z,19.20
2019-02-20T19:46:05.635Z,26.43
2019-02-20T19:48:38.599Z,22.37
2019-02-20T19:51:17.309Z,24.47
2019-02-20T19:53:51.191Z,22.03
2019-02-20T19:56:29.066Z,21.80
2019-02-20T19:59:15.640Z,23.63
2019-02-20T20:02:03.493Z,33.87
2019-02-20T20:04:51.479Z,24.97
2019-02-20T20:07:28.393Z,18.77
2019-02-20T20:10:01.165Z,25.07
2019-02-20T20:12:42.362Z,25.17
2019-02-20T20:15:15.100Z,30.80
2019-02-20T20:18:12.003Z,21.87
2019-02-20T20:21:02.681Z,23.70
2019-02-20T20:23:50.523Z,25.03
2019-02-20T20:26:44.459Z,27.77
2019-02-20T20:29:32.279Z,32.87
2019-02-20T20:32:14.087Z,25.43
2019-02-20T20:35:04.856Z,22.90
2019-02-20T20:37:51.924Z,25.93
2019-02-20T20:40:26.950Z,26.03
2019-02-20T20:43:13.625Z,22.87
2019-02-20T20:46:04.956Z,23.13
2019-02-20T20:48:55.806Z,18.97
2019-02-20T20:51:43.617Z,26.77
2019-02-20T20:54:25.522Z,26.73
2019-02-20T20:57:04.138Z,28.63
2019-02-20T20:59:41.564Z,20.33
2019-02-20T21:02:41.348Z,25.33
2019-02-20T21:05:27.793Z,24.37
2019-02-20T21:08:08.585Z,23.13
2019-02-20T21:10:55.183Z,22.53
2019-02-20T21:13:43.046Z,24.13
2019-02-20T21:16:43.278Z,27.87
2019-02-20T21:19:31.043Z,23.90
2019-02-20T21:22:09.847Z,24.03
2019-02-20T21:24:54.577Z,22.00
2019-02-20T21:27:45.202Z,24.93
2019-02-20T21:30:41.822Z,22.37
2019-02-20T21:33:33.269Z,24.67
2019-02-20T21:36:08.887Z,24.03
2019-02-20T21:38:59.783Z,22.67
2019-02-20T21:41:46.611Z,28.27
2019-02-20T21:44:34.433Z,25.90
2019-02-20T21:47:22.216Z,27.07
2019-02-20T21:49:57.724Z,24.17
2019-02-20T21:52:44.417Z,24.13
2019-02-20T21:55:30.359Z,21.07
2019-02-20T21:58:06.863Z,23.40
2019-02-20T22:00:41.147Z,23.57
2019-02-20T22:03:31.941Z,23.67
2019-02-20T22:09:17.286Z,28.13
2019-02-20T22:12:06.081Z,30.33
2019-02-20T22:14:59.888Z,21.67
2019-02-20T22:18:02.819Z,21.27
2019-02-20T22:20:50.643Z,27.90
2019-02-20T22:23:33.217Z,26.63
2019-02-20T22:26:14.287Z,24.03
2019-02-20T22:28:57.828Z,23.73
2019-02-20T22:31:45.656Z,22.30
2019-02-20T22:34:39.402Z,25.07
2019-02-20T22:37:20.059Z,22.33
2019-02-20T22:39:57.758Z,22.10
2019-02-20T22:42:48.371Z,23.37
2019-02-20T22:45:23.170Z,28.23
2019-02-20T22:48:23.660Z,26.50
2019-02-20T22:50:56.393Z,23.07
2019-02-20T22:53:30.122Z,27.20
2019-02-20T22:56:22.166Z,23.77
2019-02-20T22:58:57.077Z,23.70
2019-02-20T23:01:50.683Z,19.87
2019-02-20T23:04:50.802Z,22.60
2019-02-20T23:07:28.169Z,23.23
2019-02-20T23:10:12.672Z,20.87
2019-02-20T23:13:12.760Z,22.37
2019-02-20T23:15:43.269Z,24.93
2019-02-20T23:18:11.970Z,29.93
2019-02-20T23:20:40.620Z,23.53
2019-02-20T23:23:09.341Z,23.33
2019-02-20T23:25:38.015Z,21.07
2019-02-20T23:28:06.690Z,24.37
2019-02-20T23:30:35.401Z,22.20
2019-02-20T23:33:05.144Z,23.47
2019-02-20T23:35:33.841Z,18.70
2019-02-20T23:38:02.515Z,20.93
2019-02-20T23:40:32.066Z,19.53
2019-02-20T23:43:00.738Z,22.57
2019-02-20T23:45:29.437Z,17.40
2019-02-20T23:47:58.099Z,24.13
2019-02-20T23:50:26.785Z,19.33
2019-02-20T23:52:55.573Z,20.13
2019-02-20T23:55:24.242Z,24.87
2019-02-20T23:57:52.900Z,19.80
